Main page
METAR-TAF:

METAR-TAF

Airports :

Madrid-Cuatro Vientos, Spain

Cuatro Vientos Airport

latitude: 40-23N, longitude: 003-47W, elevation: 690 m

Current weather observation

The report was made 49 minutes ago, at 11:00 UTC
Wind 1 kt from variable directions
Temperature 15°C
Humidity 39%
Pressure 1025 hPa
Visibility 10 km or more
no clouds below 1500 m and no cumulonimbus

METAR: LEVS 201100Z VRB01KT CAVOK 15/01 Q1025

Time: 12:49 (11:49 UTC)

Forecast

The report was made 49 minutes ago, at 11:00 UTC
Forecast valid from 20 at 12 UTC to 20 at 21 UTC
Wind 5 kt from variable directions
Visibility 10 km or more
no clouds below 1500 m and no cumulonimbus

TAF: LEVS 201100Z 2012/2021 VRB05KT CAVOK

Weather observations and forecasts of more than 4000 airports (METAR and TAF reports).

The available stations are represented by yellow and red dots on the map.

Hover mouse over dot to see the name of the station.

Then click to see weather observations and forecasts.

To change the map : click on the green buttons with a black cross to zoom in, on the green button with a dash to zoom out, or on the green arrows for adjacent maps.


METAR-TAF: